sensor_id;sensor_type;location;lat;lon;timestamp;pressure;altitude;pressure_sealevel;temperature;humidity
6778;BME280;3426;52.244;10.534;2023-03-04T00:02:09;101347.28;;;6.47;66.68
6778;BME280;3426;52.244;10.534;2023-03-04T00:04:35;101342.38;;;6.66;66.56
6778;BME280;3426;52.244;10.534;2023-03-04T00:07:02;101343.06;;;6.40;67.08
6778;BME280;3426;52.244;10.534;2023-03-04T00:09:28;101344.75;;;6.42;67.96
6778;BME280;3426;52.244;10.534;2023-03-04T00:11:55;101341.41;;;6.01;68.47
6778;BME280;3426;52.244;10.534;2023-03-04T00:14:21;101346.28;;;5.78;68.39
6778;BME280;3426;52.244;10.534;2023-03-04T00:16:48;101350.88;;;6.08;67.95
6778;BME280;3426;52.244;10.534;2023-03-04T00:19:14;101338.63;;;6.42;67.17
6778;BME280;3426;52.244;10.534;2023-03-04T00:21:41;101343.03;;;6.41;65.87
6778;BME280;3426;52.244;10.534;2023-03-04T00:24:07;101333.91;;;6.54;65.05
6778;BME280;3426;52.244;10.534;2023-03-04T00:26:34;101328.13;;;5.69;67.88
6778;BME280;3426;52.244;10.534;2023-03-04T00:29:00;101339.41;;;5.74;67.75
6778;BME280;3426;52.244;10.534;2023-03-04T00:31:27;101322.63;;;6.49;66.84
6778;BME280;3426;52.244;10.534;2023-03-04T00:33:53;101330.84;;;6.37;65.81
6778;BME280;3426;52.244;10.534;2023-03-04T00:36:20;101327.91;;;6.49;65.93
6778;BME280;3426;52.244;10.534;2023-03-04T00:38:46;101319.50;;;6.99;64.24
6778;BME280;3426;52.244;10.534;2023-03-04T00:41:13;101328.09;;;6.07;66.04
6778;BME280;3426;52.244;10.534;2023-03-04T00:43:39;101319.16;;;6.80;64.71
6778;BME280;3426;52.244;10.534;2023-03-04T00:46:06;101315.13;;;6.34;66.14
6778;BME280;3426;52.244;10.534;2023-03-04T00:48:32;101306.50;;;6.29;66.40
6778;BME280;3426;52.244;10.534;2023-03-04T00:50:59;101297.31;;;6.45;64.99
6778;BME280;3426;52.244;10.534;2023-03-04T00:53:25;101312.25;;;6.10;66.87
6778;BME280;3426;52.244;10.534;2023-03-04T00:55:52;101304.84;;;6.57;65.00
6778;BME280;3426;52.244;10.534;2023-03-04T00:58:18;101300.09;;;6.72;65.38
6778;BME280;3426;52.244;10.534;2023-03-04T01:00:44;101305.31;;;6.06;67.59
6778;BME280;3426;52.244;10.534;2023-03-04T01:03:11;101300.88;;;6.43;66.37
6778;BME280;3426;52.244;10.534;2023-03-04T01:05:37;101295.13;;;6.28;66.08
6778;BME280;3426;52.244;10.534;2023-03-04T01:08:04;101301.50;;;6.20;66.59
6778;BME280;3426;52.244;10.534;2023-03-04T01:10:31;101289.47;;;6.75;65.19
6778;BME280;3426;52.244;10.534;2023-03-04T01:12:57;101299.84;;;6.16;65.89
6778;BME280;3426;52.244;10.534;2023-03-04T01:15:24;101293.94;;;6.07;66.12
6778;BME280;3426;52.244;10.534;2023-03-04T01:17:50;101289.00;;;6.28;65.85
6778;BME280;3426;52.244;10.534;2023-03-04T01:20:17;101281.88;;;5.99;67.14
6778;BME280;3426;52.244;10.534;2023-03-04T01:22:44;101280.34;;;6.23;66.58
6778;BME280;3426;52.244;10.534;2023-03-04T01:25:10;101276.63;;;6.64;64.66
6778;BME280;3426;52.244;10.534;2023-03-04T01:27:37;101282.81;;;6.61;64.84
6778;BME280;3426;52.244;10.534;2023-03-04T01:30:04;101276.53;;;6.67;66.17
6778;BME280;3426;52.244;10.534;2023-03-04T01:32:30;101275.50;;;6.73;64.50
6778;BME280;3426;52.244;10.534;2023-03-04T01:34:57;101276.41;;;6.72;64.36
6778;BME280;3426;52.244;10.534;2023-03-04T01:37:23;101274.84;;;6.64;65.03
6778;BME280;3426;52.244;10.534;2023-03-04T01:39:50;101267.09;;;6.89;63.18
6778;BME280;3426;52.244;10.534;2023-03-04T01:42:19;101270.41;;;6.67;64.69
6778;BME280;3426;52.244;10.534;2023-03-04T01:44:47;101258.97;;;6.35;65.96
6778;BME280;3426;52.244;10.534;2023-03-04T01:47:15;101260.38;;;7.09;63.69
6778;BME280;3426;52.244;10.534;2023-03-04T01:49:41;101254.38;;;6.43;65.18
6778;BME280;3426;52.244;10.534;2023-03-04T01:52:12;101237.25;;;7.47;62.95
6778;BME280;3426;52.244;10.534;2023-03-04T01:54:39;101245.00;;;6.95;63.19
6778;BME280;3426;52.244;10.534;2023-03-04T01:57:16;101230.47;;;7.11;64.21
6778;BME280;3426;52.244;10.534;2023-03-04T01:59:43;101226.63;;;7.22;63.74
6778;BME280;3426;52.244;10.534;2023-03-04T02:02:11;101228.88;;;6.76;64.49
6778;BME280;3426;52.244;10.534;2023-03-04T02:04:38;101231.03;;;6.93;64.02
6778;BME280;3426;52.244;10.534;2023-03-04T02:07:06;101224.28;;;7.12;63.48
6778;BME280;3426;52.244;10.534;2023-03-04T02:09:33;101226.91;;;7.12;63.71
6778;BME280;3426;52.244;10.534;2023-03-04T02:12:01;101221.13;;;7.82;61.91
6778;BME280;3426;52.244;10.534;2023-03-04T02:14:27;101214.19;;;7.27;63.37
6778;BME280;3426;52.244;10.534;2023-03-04T02:16:54;101218.00;;;6.59;65.26
6778;BME280;3426;52.244;10.534;2023-03-04T02:19:40;101212.09;;;7.08;64.37
6778;BME280;3426;52.244;10.534;2023-03-04T02:22:08;101211.72;;;6.93;64.83
6778;BME280;3426;52.244;10.534;2023-03-04T02:27:07;101208.94;;;6.97;65.08
6778;BME280;3426;52.244;10.534;2023-03-04T02:29:33;101200.97;;;6.71;65.56
6778;BME280;3426;52.244;10.534;2023-03-04T02:32:00;101199.41;;;7.49;63.05
6778;BME280;3426;52.244;10.534;2023-03-04T02:34:30;101194.13;;;7.23;63.29
6778;BME280;3426;52.244;10.534;2023-03-04T02:36:57;101196.34;;;7.07;65.30
6778;BME280;3426;52.244;10.534;2023-03-04T02:39:31;101199.13;;;7.02;64.93
6778;BME280;3426;52.244;10.534;2023-03-04T02:41:59;101190.94;;;7.66;62.23
6778;BME280;3426;52.244;10.534;2023-03-04T02:44:31;101193.97;;;7.27;62.67
6778;BME280;3426;52.244;10.534;2023-03-04T02:47:00;101188.25;;;7.67;62.67
6778;BME280;3426;52.244;10.534;2023-03-04T02:49:29;101192.19;;;7.54;62.99
6778;BME280;3426;52.244;10.534;2023-03-04T02:52:08;101179.69;;;7.34;64.51
6778;BME280;3426;52.244;10.534;2023-03-04T02:54:36;101181.13;;;7.96;61.50
6778;BME280;3426;52.244;10.534;2023-03-04T02:57:07;101172.66;;;7.07;64.41
6778;BME280;3426;52.244;10.534;2023-03-04T02:59:35;101181.56;;;7.03;63.75
6778;BME280;3426;52.244;10.534;2023-03-04T03:02:02;101177.28;;;6.71;65.70
6778;BME280;3426;52.244;10.534;2023-03-04T03:04:29;101181.03;;;7.20;65.36
6778;BME280;3426;52.244;10.534;2023-03-04T03:06:55;101170.72;;;6.84;66.88
6778;BME280;3426;52.244;10.534;2023-03-04T03:09:22;101179.69;;;7.06;64.69
6778;BME280;3426;52.244;10.534;2023-03-04T03:11:48;101174.94;;;6.89;66.22
6778;BME280;3426;52.244;10.534;2023-03-04T03:14:15;101171.78;;;7.06;64.94
6778;BME280;3426;52.244;10.534;2023-03-04T03:16:41;101163.16;;;7.56;64.29
6778;BME280;3426;52.244;10.534;2023-03-04T03:19:08;101163.84;;;8.12;62.08
6778;BME280;3426;52.244;10.534;2023-03-04T03:21:35;101168.56;;;6.69;67.68
6778;BME280;3426;52.244;10.534;2023-03-04T03:24:01;101167.88;;;7.46;65.20
6778;BME280;3426;52.244;10.534;2023-03-04T03:26:28;101161.88;;;7.14;65.71
6778;BME280;3426;52.244;10.534;2023-03-04T03:28:54;101166.66;;;6.74;67.61
6778;BME280;3426;52.244;10.534;2023-03-04T03:31:21;101157.66;;;6.51;68.62
6778;BME280;3426;52.244;10.534;2023-03-04T03:33:47;101162.94;;;6.81;68.22
6778;BME280;3426;52.244;10.534;2023-03-04T03:36:14;101164.66;;;7.38;66.30
6778;BME280;3426;52.244;10.534;2023-03-04T03:38:40;101173.25;;;6.59;68.52
6778;BME280;3426;52.244;10.534;2023-03-04T03:41:07;101164.00;;;6.75;69.45
6778;BME280;3426;52.244;10.534;2023-03-04T03:43:33;101160.53;;;6.44;69.74
6778;BME280;3426;52.244;10.534;2023-03-04T03:45:59;101169.34;;;6.72;69.44
6778;BME280;3426;52.244;10.534;2023-03-04T03:48:26;101167.72;;;6.96;68.78
6778;BME280;3426;52.244;10.534;2023-03-04T03:50:52;101166.00;;;6.95;69.17
6778;BME280;3426;52.244;10.534;2023-03-04T03:53:19;101161.88;;;7.14;69.24
6778;BME280;3426;52.244;10.534;2023-03-04T03:55:45;101158.63;;;7.06;69.46
6778;BME280;3426;52.244;10.534;2023-03-04T03:58:12;101157.03;;;6.43;70.94
6778;BME280;3426;52.244;10.534;2023-03-04T04:00:39;101148.00;;;6.52;70.84
6778;BME280;3426;52.244;10.534;2023-03-04T04:03:06;101156.44;;;6.93;71.01
6778;BME280;3426;52.244;10.534;2023-03-04T04:05:32;101153.78;;;6.64;70.68
6778;BME280;3426;52.244;10.534;2023-03-04T04:07:59;101150.78;;;6.47;71.95
6778;BME280;3426;52.244;10.534;2023-03-04T04:10:25;101141.25;;;6.43;71.54
6778;BME280;3426;52.244;10.534;2023-03-04T04:12:51;101152.03;;;6.63;71.51
6778;BME280;3426;52.244;10.534;2023-03-04T04:15:18;101142.78;;;6.21;72.64
6778;BME280;3426;52.244;10.534;2023-03-04T04:17:44;101137.94;;;7.22;70.21
6778;BME280;3426;52.244;10.534;2023-03-04T04:20:11;101138.16;;;6.29;73.22
6778;BME280;3426;52.244;10.534;2023-03-04T04:22:37;101136.19;;;6.37;72.03
6778;BME280;3426;52.244;10.534;2023-03-04T04:25:04;101132.38;;;7.03;71.38
6778;BME280;3426;52.244;10.534;2023-03-04T04:27:31;101134.91;;;6.50;72.26
6778;BME280;3426;52.244;10.534;2023-03-04T04:29:57;101128.56;;;6.85;70.61
6778;BME280;3426;52.244;10.534;2023-03-04T04:32:24;101137.72;;;6.44;72.78
6778;BME280;3426;52.244;10.534;2023-03-04T04:34:50;101128.28;;;6.95;69.79
6778;BME280;3426;52.244;10.534;2023-03-04T04:37:17;101128.94;;;7.01;71.16
6778;BME280;3426;52.244;10.534;2023-03-04T04:39:43;101138.22;;;6.85;69.68
6778;BME280;3426;52.244;10.534;2023-03-04T04:42:10;101139.19;;;6.82;71.18
6778;BME280;3426;52.244;10.534;2023-03-04T04:44:37;101134.84;;;6.81;70.42
6778;BME280;3426;52.244;10.534;2023-03-04T04:47:05;101129.03;;;7.78;68.84
6778;BME280;3426;52.244;10.534;2023-03-04T04:49:32;101114.78;;;7.05;70.74
6778;BME280;3426;52.244;10.534;2023-03-04T04:51:59;101125.72;;;7.46;69.37
6778;BME280;3426;52.244;10.534;2023-03-04T04:54:25;101124.91;;;7.17;72.08
6778;BME280;3426;52.244;10.534;2023-03-04T04:56:52;101120.69;;;7.12;70.53
6778;BME280;3426;52.244;10.534;2023-03-04T04:59:19;101122.06;;;7.24;71.92
6778;BME280;3426;52.244;10.534;2023-03-04T05:01:45;101108.81;;;7.27;71.73
6778;BME280;3426;52.244;10.534;2023-03-04T05:04:12;101117.22;;;6.55;73.02
6778;BME280;3426;52.244;10.534;2023-03-04T05:06:39;101116.22;;;6.59;74.59
6778;BME280;3426;52.244;10.534;2023-03-04T05:09:05;101120.34;;;6.38;74.96
6778;BME280;3426;52.244;10.534;2023-03-04T05:11:33;101120.72;;;6.84;73.65
6778;BME280;3426;52.244;10.534;2023-03-04T05:13:59;101112.69;;;6.88;72.61
6778;BME280;3426;52.244;10.534;2023-03-04T05:16:26;101118.31;;;6.48;74.08
6778;BME280;3426;52.244;10.534;2023-03-04T05:18:53;101118.34;;;7.56;71.74
6778;BME280;3426;52.244;10.534;2023-03-04T05:21:19;101108.28;;;7.42;69.85
6778;BME280;3426;52.244;10.534;2023-03-04T05:23:46;101108.81;;;7.27;72.07
6778;BME280;3426;52.244;10.534;2023-03-04T05:26:15;101120.03;;;6.77;72.38
6778;BME280;3426;52.244;10.534;2023-03-04T05:28:43;101107.44;;;7.66;70.80
6778;BME280;3426;52.244;10.534;2023-03-04T05:31:09;101104.00;;;6.85;74.43
6778;BME280;3426;52.244;10.534;2023-03-04T05:33:36;101112.94;;;7.07;73.56
6778;BME280;3426;52.244;10.534;2023-03-04T05:36:04;101106.63;;;6.85;74.91
6778;BME280;3426;52.244;10.534;2023-03-04T05:38:31;101100.97;;;6.97;73.94
6778;BME280;3426;52.244;10.534;2023-03-04T05:41:00;101100.69;;;7.06;73.69
6778;BME280;3426;52.244;10.534;2023-03-04T05:43:27;101100.56;;;7.62;70.83
6778;BME280;3426;52.244;10.534;2023-03-04T05:45:54;101105.03;;;7.07;73.19
6778;BME280;3426;52.244;10.534;2023-03-04T05:48:21;101094.44;;;7.09;73.36
6778;BME280;3426;52.244;10.534;2023-03-04T05:50:55;101099.16;;;7.26;72.88
6778;BME280;3426;52.244;10.534;2023-03-04T05:53:22;101098.06;;;7.33;71.43
6778;BME280;3426;52.244;10.534;2023-03-04T05:55:49;101107.66;;;7.07;74.00
6778;BME280;3426;52.244;10.534;2023-03-04T05:58:16;101103.97;;;6.86;75.69
6778;BME280;3426;52.244;10.534;2023-03-04T06:00:43;101107.28;;;6.93;74.12
6778;BME280;3426;52.244;10.534;2023-03-04T06:03:18;101102.78;;;7.48;73.61
6778;BME280;3426;52.244;10.534;2023-03-04T06:05:45;101117.75;;;6.37;77.58
6778;BME280;3426;52.244;10.534;2023-03-04T06:08:13;101110.88;;;7.43;73.91
6778;BME280;3426;52.244;10.534;2023-03-04T06:10:40;101101.06;;;7.47;74.30
6778;BME280;3426;52.244;10.534;2023-03-04T06:13:07;101115.44;;;6.26;76.45
6778;BME280;3426;52.244;10.534;2023-03-04T06:15:33;101111.81;;;6.88;76.36
6778;BME280;3426;52.244;10.534;2023-03-04T06:18:00;101116.78;;;6.41;77.87
6778;BME280;3426;52.244;10.534;2023-03-04T06:20:26;101117.13;;;5.98;80.72
6778;BME280;3426;52.244;10.534;2023-03-04T06:22:53;101112.94;;;6.81;77.37
6778;BME280;3426;52.244;10.534;2023-03-04T06:25:20;101110.84;;;6.62;79.39
6778;BME280;3426;52.244;10.534;2023-03-04T06:27:46;101110.34;;;7.06;77.86
6778;BME280;3426;52.244;10.534;2023-03-04T06:30:16;101112.88;;;6.82;76.67
6778;BME280;3426;52.244;10.534;2023-03-04T06:32:42;101109.66;;;6.73;78.48
6778;BME280;3426;52.244;10.534;2023-03-04T06:35:11;101108.88;;;6.41;79.49
6778;BME280;3426;52.244;10.534;2023-03-04T06:37:37;101107.78;;;6.48;78.66
6778;BME280;3426;52.244;10.534;2023-03-04T06:40:06;101114.59;;;6.26;79.89
6778;BME280;3426;52.244;10.534;2023-03-04T06:42:34;101110.38;;;6.78;77.32
6778;BME280;3426;52.244;10.534;2023-03-04T06:45:01;101116.81;;;6.68;80.15
6778;BME280;3426;52.244;10.534;2023-03-04T06:47:28;101116.53;;;7.31;75.99
6778;BME280;3426;52.244;10.534;2023-03-04T06:49:54;101108.22;;;6.62;77.25
6778;BME280;3426;52.244;10.534;2023-03-04T06:52:21;101121.19;;;6.69;78.70
6778;BME280;3426;52.244;10.534;2023-03-04T06:54:47;101116.22;;;7.14;76.45
6778;BME280;3426;52.244;10.534;2023-03-04T06:57:14;101113.72;;;7.11;77.17
6778;BME280;3426;52.244;10.534;2023-03-04T06:59:40;101114.09;;;6.43;79.20
6778;BME280;3426;52.244;10.534;2023-03-04T07:02:10;101113.53;;;6.89;78.91
6778;BME280;3426;52.244;10.534;2023-03-04T07:04:38;101112.06;;;6.51;79.19
6778;BME280;3426;52.244;10.534;2023-03-04T07:09:42;101114.19;;;6.96;77.65
6778;BME280;3426;52.244;10.534;2023-03-04T07:12:08;101126.78;;;5.97;79.94
6778;BME280;3426;52.244;10.534;2023-03-04T07:14:34;101118.13;;;6.25;79.88
6778;BME280;3426;52.244;10.534;2023-03-04T07:17:01;101116.22;;;7.14;76.97
6778;BME280;3426;52.244;10.534;2023-03-04T07:19:27;101108.47;;;6.83;77.71
6778;BME280;3426;52.244;10.534;2023-03-04T07:21:54;101119.75;;;6.58;78.86
6778;BME280;3426;52.244;10.534;2023-03-04T07:24:20;101107.59;;;6.82;78.71
6778;BME280;3426;52.244;10.534;2023-03-04T07:26:47;101120.03;;;6.18;81.20
6778;BME280;3426;52.244;10.534;2023-03-04T07:29:13;101114.31;;;6.64;79.96
6778;BME280;3426;52.244;10.534;2023-03-04T07:31:40;101118.31;;;6.48;79.44
6778;BME280;3426;52.244;10.534;2023-03-04T07:34:09;101122.94;;;6.68;78.98
6778;BME280;3426;52.244;10.534;2023-03-04T07:36:36;101113.28;;;6.97;78.94
6778;BME280;3426;52.244;10.534;2023-03-04T07:39:04;101110.38;;;6.78;78.03
6778;BME280;3426;52.244;10.534;2023-03-04T07:41:31;101109.97;;;6.62;80.42
6778;BME280;3426;52.244;10.534;2023-03-04T07:43:57;101112.72;;;6.87;79.69
6778;BME280;3426;52.244;10.534;2023-03-04T07:46:24;101105.38;;;6.69;79.78
6778;BME280;3426;52.244;10.534;2023-03-04T07:48:51;101112.03;;;7.08;81.07
6778;BME280;3426;52.244;10.534;2023-03-04T07:51:20;101109.09;;;7.17;78.44
6778;BME280;3426;52.244;10.534;2023-03-04T07:53:49;101115.06;;;6.96;78.88
6778;BME280;3426;52.244;10.534;2023-03-04T07:56:21;101102.19;;;7.40;77.23
6778;BME280;3426;52.244;10.534;2023-03-04T07:58:48;101102.75;;;6.97;80.22
6778;BME280;3426;52.244;10.534;2023-03-04T08:01:29;101113.59;;;6.58;80.19
6778;BME280;3426;52.244;10.534;2023-03-04T08:03:56;101098.84;;;7.08;80.06
6778;BME280;3426;52.244;10.534;2023-03-04T08:06:24;101100.22;;;7.20;79.95
6778;BME280;3426;52.244;10.534;2023-03-04T08:09:00;101101.88;;;6.70;80.62
6778;BME280;3426;52.244;10.534;2023-03-04T08:11:28;101105.56;;;6.62;80.74
6778;BME280;3426;52.244;10.534;2023-03-04T08:13:57;101106.97;;;7.29;79.47
6778;BME280;3426;52.244;10.534;2023-03-04T08:16:25;101101.88;;;6.70;79.95
6778;BME280;3426;52.244;10.534;2023-03-04T08:18:55;101101.81;;;6.99;79.62
6778;BME280;3426;52.244;10.534;2023-03-04T08:21:23;101107.03;;;6.73;80.91
6778;BME280;3426;52.244;10.534;2023-03-04T08:23:50;101104.63;;;7.46;79.03
6778;BME280;3426;52.244;10.534;2023-03-04T08:26:21;101107.91;;;8.03;77.65
6778;BME280;3426;52.244;10.534;2023-03-04T08:28:49;101108.47;;;6.25;82.86
6778;BME280;3426;52.244;10.534;2023-03-04T08:31:17;101102.03;;;6.91;81.88
6778;BME280;3426;52.244;10.534;2023-03-04T08:33:44;101107.78;;;7.31;80.81
6778;BME280;3426;52.244;10.534;2023-03-04T08:36:12;101116.97;;;6.63;82.78
6778;BME280;3426;52.244;10.534;2023-03-04T08:38:39;101113.78;;;6.53;82.81
6778;BME280;3426;52.244;10.534;2023-03-04T08:41:05;101100.78;;;7.30;81.97
6778;BME280;3426;52.244;10.534;2023-03-04T08:43:32;101111.56;;;6.68;80.43
6778;BME280;3426;52.244;10.534;2023-03-04T08:46:00;101106.34;;;6.66;80.54
6778;BME280;3426;52.244;10.534;2023-03-04T08:48:26;101112.19;;;7.04;80.98
6778;BME280;3426;52.244;10.534;2023-03-04T08:50:53;101104.38;;;7.01;79.18
6778;BME280;3426;52.244;10.534;2023-03-04T08:53:20;101093.78;;;7.02;78.29
6778;BME280;3426;52.244;10.534;2023-03-04T08:55:47;101102.06;;;7.44;77.52
6778;BME280;3426;52.244;10.534;2023-03-04T08:58:14;101097.69;;;7.68;75.84
6778;BME280;3426;52.244;10.534;2023-03-04T09:00:43;101098.28;;;7.77;74.40
6778;BME280;3426;52.244;10.534;2023-03-04T09:03:14;101102.16;;;7.66;74.58
6778;BME280;3426;52.244;10.534;2023-03-04T09:05:41;101088.97;;;8.62;70.15
6778;BME280;3426;52.244;10.534;2023-03-04T09:08:07;101103.09;;;8.61;70.95
6778;BME280;3426;52.244;10.534;2023-03-04T09:10:33;101104.06;;;8.35;71.88
6778;BME280;3426;52.244;10.534;2023-03-04T09:13:00;101098.44;;;8.67;68.95
6778;BME280;3426;52.244;10.534;2023-03-04T09:15:27;101097.63;;;7.95;71.75
6778;BME280;3426;52.244;10.534;2023-03-04T09:17:54;101109.13;;;8.64;70.41
6778;BME280;3426;52.244;10.534;2023-03-04T09:20:20;101110.88;;;8.42;69.53
6778;BME280;3426;52.244;10.534;2023-03-04T09:22:48;101111.94;;;7.38;75.34
6778;BME280;3426;52.244;10.534;2023-03-04T09:25:15;101116.66;;;7.53;75.97
6778;BME280;3426;52.244;10.534;2023-03-04T09:27:41;101114.00;;;7.55;76.85
6778;BME280;3426;52.244;10.534;2023-03-04T09:30:09;101117.59;;;7.52;78.51
6778;BME280;3426;52.244;10.534;2023-03-04T09:32:36;101120.88;;;8.32;75.79
6778;BME280;3426;52.244;10.534;2023-03-04T09:35:03;101126.44;;;8.24;75.57
6778;BME280;3426;52.244;10.534;2023-03-04T09:37:29;101114.06;;;7.78;78.14
6778;BME280;3426;52.244;10.534;2023-03-04T09:39:56;101121.84;;;8.06;75.70
6778;BME280;3426;52.244;10.534;2023-03-04T09:42:29;101118.84;;;8.86;73.88
6778;BME280;3426;52.244;10.534;2023-03-04T09:44:59;101122.00;;;8.72;73.24
6778;BME280;3426;52.244;10.534;2023-03-04T09:47:25;101115.34;;;7.91;77.73
6778;BME280;3426;52.244;10.534;2023-03-04T09:49:58;101114.28;;;8.44;77.48
6778;BME280;3426;52.244;10.534;2023-03-04T09:55:22;101111.66;;;8.44;75.97
6778;BME280;3426;52.244;10.534;2023-03-04T09:58:06;101100.84;;;8.27;75.18
6778;BME280;3426;52.244;10.534;2023-03-04T10:00:46;101105.66;;;8.15;77.00
6778;BME280;3426;52.244;10.534;2023-03-04T10:03:19;101098.56;;;8.64;73.67
6778;BME280;3426;52.244;10.534;2023-03-04T10:05:55;101107.53;;;8.37;76.24
6778;BME280;3426;52.244;10.534;2023-03-04T10:11:22;101096.41;;;7.55;78.41
6778;BME280;3426;52.244;10.534;2023-03-04T10:21:51;101099.81;;;8.31;76.10
6778;BME280;3426;52.244;10.534;2023-03-04T10:24:20;101097.13;;;8.09;77.10
6778;BME280;3426;52.244;10.534;2023-03-04T10:26:51;101101.44;;;8.35;79.66
6778;BME280;3426;52.244;10.534;2023-03-04T10:29:21;101094.03;;;8.44;77.37
6778;BME280;3426;52.244;10.534;2023-03-04T10:31:48;101093.91;;;8.93;74.99
6778;BME280;3426;52.244;10.534;2023-03-04T10:34:16;101100.88;;;8.50;75.72
6778;BME280;3426;52.244;10.534;2023-03-04T10:36:49;101093.91;;;8.93;74.86
6778;BME280;3426;52.244;10.534;2023-03-04T10:39:24;101096.81;;;9.07;73.89
6778;BME280;3426;52.244;10.534;2023-03-04T10:44:23;101092.34;;;7.70;78.24
6778;BME280;3426;52.244;10.534;2023-03-04T10:46:52;101098.38;;;8.22;76.56
6778;BME280;3426;52.244;10.534;2023-03-04T10:49:20;101097.28;;;8.74;75.53
6778;BME280;3426;52.244;10.534;2023-03-04T10:52:01;101101.44;;;8.35;76.03
6778;BME280;3426;52.244;10.534;2023-03-04T10:54:46;101088.72;;;8.90;72.81
6778;BME280;3426;52.244;10.534;2023-03-04T10:57:16;101097.75;;;8.84;73.46
6778;BME280;3426;52.244;10.534;2023-03-04T11:02:27;101099.38;;;8.43;75.41
6778;BME280;3426;52.244;10.534;2023-03-04T11:07:38;101086.03;;;8.69;72.49
6778;BME280;3426;52.244;10.534;2023-03-04T11:15:29;101073.50;;;8.29;71.56
6778;BME280;3426;52.244;10.534;2023-03-04T11:17:59;101066.88;;;9.08;70.35
6778;BME280;3426;52.244;10.534;2023-03-04T11:20:36;101070.66;;;8.79;70.07
6778;BME280;3426;52.244;10.534;2023-03-04T11:25:41;101068.16;;;8.98;69.58
6778;BME280;3426;52.244;10.534;2023-03-04T11:28:24;101075.09;;;8.79;70.01
6778;BME280;3426;52.244;10.534;2023-03-04T11:30:58;101063.28;;;9.09;68.05
6778;BME280;3426;52.244;10.534;2023-03-04T11:36:20;101072.81;;;8.47;70.71
6778;BME280;3426;52.244;10.534;2023-03-04T11:38:50;101073.38;;;8.32;70.56
6778;BME280;3426;52.244;10.534;2023-03-04T11:41:27;101087.19;;;8.15;72.26
6778;BME280;3426;52.244;10.534;2023-03-04T11:43:58;101074.16;;;8.36;72.82
6778;BME280;3426;52.244;10.534;2023-03-04T11:57:43;101053.94;;;9.43;67.69
6778;BME280;3426;52.244;10.534;2023-03-04T12:08:07;101057.72;;;8.73;65.75
6778;BME280;3426;52.244;10.534;2023-03-04T12:10:55;101054.44;;;8.21;65.52
6778;BME280;3426;52.244;10.534;2023-03-04T12:13:41;101054.69;;;8.38;65.24
6778;BME280;3426;52.244;10.534;2023-03-04T12:22:05;101032.66;;;8.61;61.98
6778;BME280;3426;52.244;10.534;2023-03-04T12:38:20;101016.75;;;10.43;55.76
6778;BME280;3426;52.244;10.534;2023-03-04T12:41:13;101015.25;;;10.38;54.32
6778;BME280;3426;52.244;10.534;2023-03-04T12:47:11;101009.56;;;10.28;55.34
6778;BME280;3426;52.244;10.534;2023-03-04T12:50:30;101004.16;;;10.84;53.80
6778;BME280;3426;52.244;10.534;2023-03-04T12:55:39;101006.88;;;10.47;54.61
6778;BME280;3426;52.244;10.534;2023-03-04T12:58:17;101011.59;;;9.83;56.10
6778;BME280;3426;52.244;10.534;2023-03-04T13:01:39;101028.31;;;10.03;54.81
6778;BME280;3426;52.244;10.534;2023-03-04T13:09:43;101011.56;;;9.44;55.47
6778;BME280;3426;52.244;10.534;2023-03-04T13:17:46;101012.53;;;8.81;57.08
6778;BME280;3426;52.244;10.534;2023-03-04T13:20:38;101006.28;;;9.44;55.23
6778;BME280;3426;52.244;10.534;2023-03-04T13:28:36;101011.88;;;8.30;57.41
6778;BME280;3426;52.244;10.534;2023-03-04T13:36:02;101014.00;;;9.28;58.23
6778;BME280;3426;52.244;10.534;2023-03-04T13:38:33;101006.81;;;8.69;60.66
6778;BME280;3426;52.244;10.534;2023-03-04T13:43:49;101003.41;;;8.88;59.56
6778;BME280;3426;52.244;10.534;2023-03-04T14:04:27;101012.53;;;7.66;68.25
6778;BME280;3426;52.244;10.534;2023-03-04T14:06:56;101024.56;;;8.20;68.85
6778;BME280;3426;52.244;10.534;2023-03-04T14:09:29;101026.97;;;8.03;69.27
6778;BME280;3426;52.244;10.534;2023-03-04T14:11:58;101013.31;;;8.83;65.08
6778;BME280;3426;52.244;10.534;2023-03-04T14:14:30;101014.94;;;9.27;64.44
6778;BME280;3426;52.244;10.534;2023-03-04T14:17:03;101009.78;;;9.24;64.90
6778;BME280;3426;52.244;10.534;2023-03-04T14:19:37;101005.47;;;9.63;62.58
6778;BME280;3426;52.244;10.534;2023-03-04T14:22:30;101016.91;;;9.63;61.18
6778;BME280;3426;52.244;10.534;2023-03-04T14:25:22;101007.63;;;9.92;60.20
6778;BME280;3426;52.244;10.534;2023-03-04T14:27:49;101006.19;;;9.66;59.76
6778;BME280;3426;52.244;10.534;2023-03-04T14:30:24;101006.69;;;9.74;59.58
6778;BME280;3426;52.244;10.534;2023-03-04T14:33:10;100998.47;;;9.41;60.40
6778;BME280;3426;52.244;10.534;2023-03-04T14:35:48;101009.72;;;9.06;58.54
6778;BME280;3426;52.244;10.534;2023-03-04T14:38:36;101011.22;;;8.91;59.42
6778;BME280;3426;52.244;10.534;2023-03-04T14:41:07;101017.16;;;8.30;60.62
6778;BME280;3426;52.244;10.534;2023-03-04T14:43:41;101019.28;;;8.20;61.67
6778;BME280;3426;52.244;10.534;2023-03-04T14:46:13;101004.28;;;8.22;62.68
6778;BME280;3426;52.244;10.534;2023-03-04T14:48:47;101004.00;;;8.52;63.34
6778;BME280;3426;52.244;10.534;2023-03-04T14:51:44;101015.19;;;6.90;65.59
6778;BME280;3426;52.244;10.534;2023-03-04T14:56:51;100999.78;;;8.48;61.26
6778;BME280;3426;52.244;10.534;2023-03-04T14:59:30;101005.00;;;8.26;61.41
6778;BME280;3426;52.244;10.534;2023-03-04T15:04:57;100999.28;;;8.15;62.17
6778;BME280;3426;52.244;10.534;2023-03-04T15:07:30;101002.66;;;8.64;59.84
6778;BME280;3426;52.244;10.534;2023-03-04T15:09:58;101002.09;;;8.10;60.76
6778;BME280;3426;52.244;10.534;2023-03-04T15:12:28;100989.88;;;8.75;59.17
6778;BME280;3426;52.244;10.534;2023-03-04T15:15:00;100992.97;;;8.85;59.93
6778;BME280;3426;52.244;10.534;2023-03-04T15:17:39;100995.78;;;8.38;61.60
6778;BME280;3426;52.244;10.534;2023-03-04T15:22:57;100990.19;;;8.22;62.10
6778;BME280;3426;52.244;10.534;2023-03-04T15:25:22;100984.47;;;8.34;61.91
6778;BME280;3426;52.244;10.534;2023-03-04T15:27:49;100987.06;;;8.36;61.44
6778;BME280;3426;52.244;10.534;2023-03-04T15:32:46;100985.03;;;7.97;64.67
6778;BME280;3426;52.244;10.534;2023-03-04T15:35:14;100979.63;;;7.53;64.28
6778;BME280;3426;52.244;10.534;2023-03-04T15:37:42;100977.56;;;8.08;63.23